createdAt,value
2022-10-20T00:00:49.652Z,94189.16
2022-10-20T00:01:46.239Z,94177.41
2022-10-20T00:02:42.827Z,94179.19
2022-10-20T00:03:39.785Z,94158.06
2022-10-20T00:04:36.352Z,94182.09
2022-10-20T00:05:33.977Z,94179.63
2022-10-20T00:06:33.107Z,94179.84
2022-10-20T00:07:29.862Z,94185.56
2022-10-20T00:08:26.494Z,94185.38
2022-10-20T00:09:23.135Z,94184.72
2022-10-20T00:10:19.742Z,94188.69
2022-10-20T00:11:18.778Z,94185.94
2022-10-20T00:12:15.439Z,94189.91
2022-10-20T00:13:11.999Z,94192.91
2022-10-20T00:14:09.698Z,94182.00
2022-10-20T00:15:06.748Z,94176.53
2022-10-20T00:16:03.859Z,94173.59
2022-10-20T00:17:01.551Z,94175.13
2022-10-20T00:17:58.185Z,94176.03
2022-10-20T00:18:56.239Z,94169.38
2022-10-20T00:19:52.827Z,94174.41
2022-10-20T00:20:50.556Z,94179.91
2022-10-20T00:21:47.219Z,94166.16
2022-10-20T00:22:45.598Z,94173.16
2022-10-20T00:23:44.181Z,94172.88
2022-10-20T00:24:42.044Z,94178.03
2022-10-20T00:25:44.557Z,94179.94
2022-10-20T00:26:42.664Z,94169.44
2022-10-20T00:27:41.780Z,94126.00
2022-10-20T00:28:39.199Z,94164.91
2022-10-20T00:29:35.871Z,94158.97
2022-10-20T00:30:33.867Z,94169.56
2022-10-20T00:31:31.129Z,94148.78
2022-10-20T00:32:29.702Z,94179.63
2022-10-20T00:33:27.135Z,94173.41
2022-10-20T00:34:23.739Z,94169.66
2022-10-20T00:35:23.088Z,94164.84
2022-10-20T00:36:22.407Z,94170.09
2022-10-20T00:37:20.384Z,94167.00
2022-10-20T00:39:18.842Z,94137.41
2022-10-20T00:40:15.414Z,94174.84
2022-10-20T00:41:17.391Z,94171.16
2022-10-20T00:42:20.224Z,94169.72
2022-10-20T00:43:18.988Z,94136.69
2022-10-20T00:44:54.402Z,94177.13
2022-10-20T00:45:57.450Z,94173.66
2022-10-20T00:46:53.920Z,94172.47
2022-10-20T00:47:57.071Z,94174.19
2022-10-20T00:49:15.939Z,94164.72
2022-10-20T00:50:40.279Z,94150.19
2022-10-20T00:51:37.460Z,94160.91
2022-10-20T00:52:35.124Z,94167.84
2022-10-20T00:53:32.277Z,94178.03
2022-10-20T00:54:28.963Z,94177.97
2022-10-20T00:55:29.492Z,94176.00
2022-10-20T00:56:26.334Z,94175.19
2022-10-20T00:57:23.167Z,94177.00
2022-10-20T00:58:19.971Z,94176.47
2022-10-20T00:59:22.773Z,94147.38
2022-10-20T01:00:19.586Z,94137.72
2022-10-20T01:01:16.375Z,94168.31
2022-10-20T01:02:13.528Z,94167.84
2022-10-20T01:03:18.129Z,94161.75
2022-10-20T01:04:16.023Z,94167.06
2022-10-20T01:05:13.494Z,94169.13
2022-10-20T01:06:10.150Z,94166.47
2022-10-20T01:07:06.901Z,94150.94
2022-10-20T01:08:03.560Z,94174.66
2022-10-20T01:09:00.810Z,94141.34
2022-10-20T01:09:57.754Z,94173.41
2022-10-20T01:11:11.787Z,94167.84
2022-10-20T01:12:22.836Z,94174.72
2022-10-20T01:13:29.871Z,94117.94
2022-10-20T01:14:41.170Z,94165.81
2022-10-20T01:15:42.200Z,94152.09
2022-10-20T01:16:47.061Z,94163.56
2022-10-20T01:18:11.441Z,94169.25
2022-10-20T01:19:25.203Z,94171.06
2022-10-20T01:20:30.920Z,94171.41
2022-10-20T01:21:27.598Z,94173.19
2022-10-20T01:22:45.159Z,94167.03
2022-10-20T01:24:15.709Z,94170.47
2022-10-20T01:25:21.074Z,94172.16
2022-10-20T01:26:23.314Z,94154.03
2022-10-20T01:27:28.781Z,94159.38
2022-10-20T01:28:46.467Z,94161.97
2022-10-20T01:30:04.274Z,94164.53
2022-10-20T01:31:04.281Z,94169.22
2022-10-20T01:32:22.926Z,94162.63
2022-10-20T01:33:19.467Z,94164.06
2022-10-20T01:34:39.168Z,94164.31
2022-10-20T01:35:38.532Z,94163.09
2022-10-20T01:36:44.423Z,94162.63
2022-10-20T01:38:11.808Z,94170.00
2022-10-20T01:39:15.131Z,94173.47
2022-10-20T01:40:29.659Z,94177.47
2022-10-20T01:41:57.849Z,94182.09
2022-10-20T01:42:57.286Z,94160.19
2022-10-20T01:43:54.488Z,94154.06
2022-10-20T01:44:58.458Z,94177.44
2022-10-20T01:45:58.606Z,94172.06
2022-10-20T01:46:57.048Z,94177.75
2022-10-20T01:47:54.196Z,94174.66
2022-10-20T01:48:51.377Z,94167.00
2022-10-20T01:49:49.552Z,94156.41
2022-10-20T01:50:47.460Z,94179.94
2022-10-20T01:51:44.137Z,94185.88
2022-10-20T01:52:40.712Z,94163.72
2022-10-20T01:53:37.704Z,94177.63
2022-10-20T01:54:34.261Z,94187.00
2022-10-20T01:55:31.566Z,94183.13
2022-10-20T01:57:09.753Z,94192.13
2022-10-20T01:58:36.696Z,94192.38
2022-10-20T01:59:47.021Z,94178.81
2022-10-20T02:00:45.161Z,94181.75
2022-10-20T02:02:16.928Z,94190.50
2022-10-20T02:03:22.446Z,94188.00
2022-10-20T02:04:28.077Z,94198.88
2022-10-20T02:05:48.984Z,94193.50
2022-10-20T02:06:58.224Z,94194.38
2022-10-20T02:08:24.214Z,94193.44
2022-10-20T02:09:45.141Z,94187.66
2022-10-20T02:10:51.934Z,94184.63
2022-10-20T02:12:07.944Z,94191.31
2022-10-20T02:13:07.608Z,94195.75
2022-10-20T02:14:05.880Z,94195.25
2022-10-20T02:15:03.427Z,94202.53
2022-10-20T02:16:04.867Z,94203.00
2022-10-20T02:17:07.368Z,94190.41
2022-10-20T02:18:06.676Z,94197.66
2022-10-20T02:19:07.906Z,94187.31
2022-10-20T02:20:07.159Z,94189.31
2022-10-20T02:21:04.224Z,94164.06
2022-10-20T02:22:02.823Z,94201.63
2022-10-20T02:23:00.726Z,94210.75
2022-10-20T02:24:00.603Z,94205.69
2022-10-20T02:24:57.176Z,94208.47
2022-10-20T02:25:55.652Z,94203.72
2022-10-20T02:26:57.638Z,94206.38
2022-10-20T02:27:55.423Z,94194.88
2022-10-20T02:29:00.642Z,94203.91
2022-10-20T02:30:02.378Z,94189.44
2022-10-20T02:30:59.067Z,94205.84
2022-10-20T02:31:56.774Z,94204.16
2022-10-20T02:32:53.325Z,94210.38
2022-10-20T02:33:50.520Z,94213.28
2022-10-20T02:34:47.880Z,94186.81
2022-10-20T02:35:51.470Z,94193.53
2022-10-20T02:36:48.096Z,94208.22
2022-10-20T02:37:44.842Z,94215.72
2022-10-20T02:38:41.451Z,94218.41
2022-10-20T02:39:38.046Z,94212.91
2022-10-20T02:40:34.615Z,94226.19
2022-10-20T02:41:31.404Z,94207.19
2022-10-20T02:42:28.023Z,94221.78
2022-10-20T02:43:24.591Z,94222.81
2022-10-20T02:44:22.795Z,94227.16
2022-10-20T02:45:19.634Z,94167.88
2022-10-20T02:46:17.343Z,94210.66
2022-10-20T02:47:14.151Z,94214.09
2022-10-20T02:48:10.676Z,94217.88
2022-10-20T02:49:07.341Z,94187.94
2022-10-20T02:50:04.477Z,94223.22
2022-10-20T02:51:01.173Z,94213.75
2022-10-20T02:51:57.817Z,94213.16
2022-10-20T02:52:54.372Z,94194.66
2022-10-20T02:53:50.948Z,94219.97
2022-10-20T02:54:47.650Z,94225.09
2022-10-20T02:55:44.363Z,94225.56
2022-10-20T02:56:40.920Z,94221.94
2022-10-20T02:57:37.681Z,94221.16
2022-10-20T02:58:34.536Z,94229.97
2022-10-20T02:59:31.131Z,94225.28
2022-10-20T03:00:31.040Z,94226.53
2022-10-20T03:01:27.744Z,94185.22
2022-10-20T03:02:24.457Z,94226.41
2022-10-20T03:03:21.059Z,94202.66
2022-10-20T03:04:17.907Z,94227.00
2022-10-20T03:05:14.920Z,94230.94
2022-10-20T03:06:16.753Z,94232.03
2022-10-20T03:07:13.492Z,94232.50
2022-10-20T03:08:11.712Z,94205.66
2022-10-20T03:09:08.394Z,94234.22
2022-10-20T03:10:05.744Z,94243.91
2022-10-20T03:11:02.307Z,94236.91
2022-10-20T03:11:58.892Z,94132.81
2022-10-20T03:12:55.467Z,94194.44
2022-10-20T03:13:52.083Z,94218.59
2022-10-20T03:14:48.721Z,94240.78
2022-10-20T03:15:45.310Z,94201.75
2022-10-20T03:16:41.862Z,94233.16
2022-10-20T03:17:38.731Z,94237.50
2022-10-20T03:18:35.557Z,94236.72
2022-10-20T03:19:32.190Z,94242.81
2022-10-20T03:20:28.794Z,94240.50
2022-10-20T03:21:25.478Z,94238.78
2022-10-20T03:22:22.124Z,94237.22
2022-10-20T03:23:20.120Z,94240.03
2022-10-20T03:24:17.084Z,94201.94
2022-10-20T03:25:13.847Z,94237.22
2022-10-20T03:26:11.963Z,94237.25
2022-10-20T03:27:08.541Z,94235.41
2022-10-20T03:28:05.259Z,94194.16
2022-10-20T03:29:01.837Z,94205.25
2022-10-20T03:29:58.426Z,94239.13
2022-10-20T03:30:55.003Z,94231.59
2022-10-20T03:31:51.592Z,94228.34
2022-10-20T03:32:48.847Z,94222.09
2022-10-20T03:33:45.596Z,94201.84
2022-10-20T03:34:42.146Z,94233.66
2022-10-20T03:35:38.761Z,94239.91
2022-10-20T03:36:35.359Z,94238.34
2022-10-20T03:37:31.908Z,94231.97
2022-10-20T03:38:28.450Z,94241.78
2022-10-20T03:39:25.037Z,94215.19
2022-10-20T03:40:21.662Z,94236.00
2022-10-20T03:41:18.254Z,94221.94
2022-10-20T03:42:15.775Z,94239.88
2022-10-20T03:43:12.396Z,94251.59
2022-10-20T03:44:10.549Z,94248.00
2022-10-20T03:45:07.646Z,94240.47
2022-10-20T03:46:06.412Z,94233.19
2022-10-20T03:47:03.018Z,94257.41
2022-10-20T03:47:59.592Z,94242.69
2022-10-20T03:48:56.404Z,94248.13
2022-10-20T03:49:53.031Z,94252.66
2022-10-20T03:50:49.594Z,94238.75
2022-10-20T03:51:46.174Z,94263.56
2022-10-20T03:52:42.763Z,94262.63
2022-10-20T03:53:39.357Z,94266.25
2022-10-20T03:54:36.969Z,94265.00
2022-10-20T03:55:33.620Z,94262.34
2022-10-20T03:56:30.210Z,94266.75
2022-10-20T03:57:26.772Z,94262.84
2022-10-20T03:58:23.653Z,94266.88
2022-10-20T03:59:20.287Z,94267.22
2022-10-20T04:00:17.071Z,94266.88
2022-10-20T04:01:16.538Z,94262.38
2022-10-20T04:02:37.980Z,94263.81
2022-10-20T04:03:35.207Z,94264.53
2022-10-20T04:04:31.877Z,94263.91
2022-10-20T04:05:28.503Z,94266.75
2022-10-20T04:06:25.079Z,94266.50
2022-10-20T04:07:21.672Z,94263.84
2022-10-20T04:08:18.327Z,94223.78
2022-10-20T04:09:14.971Z,94264.00
2022-10-20T04:10:12.110Z,94270.00
2022-10-20T04:11:08.953Z,94250.53
2022-10-20T04:12:05.726Z,94269.88
2022-10-20T04:13:03.079Z,94253.34
2022-10-20T04:13:59.918Z,94271.75
2022-10-20T04:14:56.616Z,94263.47
2022-10-20T04:15:55.793Z,94265.22
2022-10-20T04:16:52.686Z,94263.03
2022-10-20T04:17:49.372Z,94215.19
2022-10-20T04:18:46.109Z,94267.97
2022-10-20T04:19:42.769Z,94253.63
2022-10-20T04:20:42.029Z,94266.59
2022-10-20T04:21:41.005Z,94266.94
2022-10-20T04:22:38.744Z,94259.56
2022-10-20T04:23:35.506Z,94267.69
2022-10-20T04:24:32.132Z,94266.00
2022-10-20T04:25:28.775Z,94269.41
2022-10-20T04:26:25.307Z,94240.19
2022-10-20T04:27:21.958Z,94284.34
2022-10-20T04:28:20.484Z,94277.84
2022-10-20T04:29:17.151Z,94269.41
2022-10-20T04:30:13.739Z,94259.19
2022-10-20T04:31:10.310Z,94270.78
2022-10-20T04:32:06.902Z,94257.28
2022-10-20T04:33:05.573Z,94272.38
2022-10-20T04:34:02.913Z,94271.91
2022-10-20T04:34:59.843Z,94260.03
2022-10-20T04:36:01.506Z,94270.47
2022-10-20T04:36:58.480Z,94266.75
2022-10-20T04:37:55.066Z,94249.41
2022-10-20T04:38:51.665Z,94268.59
2022-10-20T04:39:48.263Z,94233.28
2022-10-20T04:40:44.791Z,94268.91
2022-10-20T04:41:41.509Z,94267.97
2022-10-20T04:42:38.127Z,94271.13
2022-10-20T04:43:34.782Z,94216.91
2022-10-20T04:44:31.413Z,94267.34
2022-10-20T04:45:28.539Z,94270.00
2022-10-20T04:46:26.726Z,94261.22
2022-10-20T04:47:23.355Z,94239.06
2022-10-20T04:48:20.102Z,94276.44
2022-10-20T04:49:16.735Z,94272.56
2022-10-20T04:50:13.404Z,94264.09
2022-10-20T04:51:12.900Z,94273.63
2022-10-20T04:52:09.634Z,94279.41
2022-10-20T04:53:06.584Z,94245.06
2022-10-20T04:55:05.730Z,94282.19
2022-10-20T04:56:03.405Z,94235.22
2022-10-20T04:57:00.046Z,94192.25
2022-10-20T04:57:56.662Z,94278.94
2022-10-20T04:58:56.244Z,94285.50
2022-10-20T04:59:52.819Z,94274.72
2022-10-20T05:00:49.690Z,94272.22
2022-10-20T05:01:46.285Z,94282.84
2022-10-20T05:02:42.825Z,94283.94
2022-10-20T05:03:39.368Z,94239.72
2022-10-20T05:04:35.908Z,94264.25
2022-10-20T05:05:32.509Z,94282.06
2022-10-20T05:06:31.103Z,94285.34
2022-10-20T05:07:30.488Z,94246.91
2022-10-20T05:08:27.055Z,94285.97
2022-10-20T05:09:23.724Z,94287.56
2022-10-20T05:10:23.582Z,94290.34
2022-10-20T05:11:22.526Z,94289.41
2022-10-20T05:12:19.185Z,94259.91
2022-10-20T05:13:15.831Z,94283.47
2022-10-20T05:14:12.417Z,94285.66
2022-10-20T05:15:09.271Z,94278.13
2022-10-20T05:16:06.395Z,94277.69
2022-10-20T05:17:05.248Z,94266.91
2022-10-20T05:18:04.429Z,94304.69
2022-10-20T05:19:01.289Z,94303.56
2022-10-20T05:19:57.903Z,94304.47
2022-10-20T05:21:08.397Z,94308.31
2022-10-20T05:22:05.777Z,94309.56
2022-10-20T05:23:02.362Z,94283.66
2022-10-20T05:24:04.825Z,94290.13
2022-10-20T05:25:24.373Z,94303.69
2022-10-20T05:26:19.072Z,94306.56
2022-10-20T05:27:15.639Z,94311.06
2022-10-20T05:28:12.210Z,94307.91
2022-10-20T05:29:11.284Z,94309.53
2022-10-20T05:30:08.358Z,94314.63
2022-10-20T05:31:06.982Z,94315.44
2022-10-20T05:32:11.242Z,94319.34
2022-10-20T05:33:19.043Z,94319.06
2022-10-20T05:34:16.709Z,94301.31
2022-10-20T05:35:14.538Z,94333.84
2022-10-20T05:36:12.930Z,94334.16
2022-10-20T05:37:09.752Z,94309.69
2022-10-20T05:38:06.895Z,94335.94
2022-10-20T05:39:04.662Z,94337.00
2022-10-20T05:40:03.856Z,94341.25
2022-10-20T05:41:39.382Z,94343.66
2022-10-20T05:42:36.860Z,94336.59
2022-10-20T05:43:34.036Z,94344.31
2022-10-20T05:44:53.409Z,94350.31
2022-10-20T05:45:54.634Z,94347.44
2022-10-20T05:46:58.215Z,94345.03
2022-10-20T05:47:55.452Z,94352.78
2022-10-20T05:48:58.112Z,94353.13
2022-10-20T05:49:55.245Z,94353.72
2022-10-20T05:50:52.614Z,94343.63
2022-10-20T05:52:04.711Z,94350.84
2022-10-20T05:53:02.227Z,94352.66
2022-10-20T05:54:00.141Z,94366.56
2022-10-20T05:54:57.475Z,94349.56
2022-10-20T05:56:07.527Z,94367.78
2022-10-20T05:57:05.365Z,94375.63
2022-10-20T05:58:03.175Z,94372.66
2022-10-20T05:59:00.157Z,94355.34
2022-10-20T05:59:58.557Z,94365.72
2022-10-20T06:00:55.149Z,94375.66
2022-10-20T06:01:52.919Z,94375.78
2022-10-20T06:02:49.500Z,94377.88
2022-10-20T06:03:49.598Z,94382.69
2022-10-20T06:04:46.219Z,94351.50
2022-10-20T06:05:42.777Z,94385.47
2022-10-20T06:06:39.318Z,94347.31
2022-10-20T06:07:35.960Z,94368.00
2022-10-20T06:08:33.362Z,94341.66
2022-10-20T06:09:29.955Z,94370.00
2022-10-20T06:10:26.557Z,94391.84
2022-10-20T06:11:23.835Z,94398.06
2022-10-20T06:12:20.619Z,94293.41
2022-10-20T06:13:17.171Z,94414.53
2022-10-20T06:14:14.188Z,94390.09
2022-10-20T06:15:10.966Z,94397.38
2022-10-20T06:16:23.837Z,94401.28
2022-10-20T06:17:20.930Z,94404.38
2022-10-20T06:18:17.589Z,94403.81
2022-10-20T06:19:14.368Z,94405.84
2022-10-20T06:20:11.046Z,94404.78
2022-10-20T06:21:10.882Z,94391.44
2022-10-20T06:22:07.525Z,94411.19
2022-10-20T06:23:04.136Z,94414.69
2022-10-20T06:24:03.445Z,94414.16
2022-10-20T06:25:00.094Z,94416.03
2022-10-20T06:26:01.812Z,94393.66
2022-10-20T06:26:58.448Z,94391.94
2022-10-20T06:27:55.047Z,94409.63
2022-10-20T06:28:56.699Z,94419.44
2022-10-20T06:29:55.293Z,94392.91
2022-10-20T06:30:51.905Z,94414.31
2022-10-20T06:31:50.712Z,94413.31
2022-10-20T06:32:47.384Z,94422.78
2022-10-20T06:33:44.680Z,94372.81
2022-10-20T06:34:41.271Z,94406.94
2022-10-20T06:35:38.378Z,94422.13
2022-10-20T06:36:39.338Z,94419.09
2022-10-20T06:37:35.925Z,94394.06
2022-10-20T06:38:32.635Z,94429.09
2022-10-20T06:39:29.234Z,94425.31
2022-10-20T06:40:25.897Z,94421.88
2022-10-20T06:41:23.275Z,94424.00
2022-10-20T06:42:19.822Z,94423.44
2022-10-20T06:43:16.408Z,94405.31
2022-10-20T06:44:12.972Z,94411.78
2022-10-20T06:45:11.385Z,94417.13
2022-10-20T06:46:13.141Z,94424.69
2022-10-20T06:47:10.423Z,94426.03
2022-10-20T06:48:07.085Z,94429.47
2022-10-20T06:49:06.660Z,94416.22
2022-10-20T06:50:03.399Z,94433.13
2022-10-20T06:51:02.442Z,94424.00
2022-10-20T06:51:59.192Z,94425.56
2022-10-20T06:52:55.849Z,94428.91
2022-10-20T06:53:52.689Z,94431.13
2022-10-20T06:54:49.238Z,94423.13
2022-10-20T06:55:45.782Z,94432.81
2022-10-20T06:56:42.528Z,94394.94
2022-10-20T06:57:39.144Z,94429.38
2022-10-20T06:58:36.773Z,94428.47
2022-10-20T06:59:33.354Z,94422.66
2022-10-20T07:01:31.364Z,94435.34
2022-10-20T07:02:27.951Z,94434.56
2022-10-20T07:03:24.614Z,94398.81
2022-10-20T07:04:21.313Z,94364.22
2022-10-20T07:05:19.864Z,94418.94
2022-10-20T07:06:28.587Z,94433.09
2022-10-20T07:07:25.280Z,94442.78
2022-10-20T07:08:22.709Z,94433.16
2022-10-20T07:09:20.818Z,94435.09
2022-10-20T07:10:17.502Z,94433.91
2022-10-20T07:11:17.720Z,94410.47
2022-10-20T07:12:14.316Z,94394.56
2022-10-20T07:13:10.893Z,94441.41
2022-10-20T07:14:07.471Z,94435.78
2022-10-20T07:15:04.535Z,94436.88
2022-10-20T07:16:01.250Z,94430.22
2022-10-20T07:16:57.883Z,94396.31
2022-10-20T07:17:54.468Z,94425.84
2022-10-20T07:18:51.859Z,94429.69
2022-10-20T07:19:48.541Z,94437.16
2022-10-20T07:20:45.082Z,94438.50
2022-10-20T07:21:45.487Z,94389.00
2022-10-20T07:22:42.640Z,94441.34
2022-10-20T07:23:39.741Z,94417.69
2022-10-20T07:24:36.692Z,94438.53
2022-10-20T07:25:33.309Z,94412.47
2022-10-20T07:26:32.490Z,94436.53
2022-10-20T07:27:29.079Z,94438.66
2022-10-20T07:28:25.633Z,94436.28
2022-10-20T07:29:22.309Z,94429.34
2022-10-20T07:30:19.078Z,94433.31
2022-10-20T07:31:21.917Z,94428.38
2022-10-20T07:32:18.552Z,94429.44
2022-10-20T07:33:15.418Z,94432.91
2022-10-20T07:34:24.401Z,94423.91
2022-10-20T07:35:22.124Z,94443.97
2022-10-20T07:36:24.399Z,94431.75
2022-10-20T07:37:20.980Z,94423.94
2022-10-20T07:38:17.566Z,94434.09
2022-10-20T07:39:14.253Z,94435.47
2022-10-20T07:40:11.479Z,94428.19
2022-10-20T07:41:09.124Z,94432.19
2022-10-20T07:42:05.732Z,94427.38
2022-10-20T07:43:02.506Z,94435.41
2022-10-20T07:43:59.332Z,94426.59
2022-10-20T07:44:55.891Z,94432.53
2022-10-20T07:45:52.458Z,94435.72
2022-10-20T07:46:49.239Z,94401.66
2022-10-20T07:47:47.650Z,94328.81
2022-10-20T07:48:44.373Z,94385.59
2022-10-20T07:49:44.959Z,94430.72
2022-10-20T07:50:42.093Z,94431.06
2022-10-20T07:51:38.709Z,94424.59
2022-10-20T07:52:35.540Z,94398.50
2022-10-20T07:53:32.245Z,94407.66
2022-10-20T07:54:28.934Z,94422.13
2022-10-20T07:55:38.102Z,94399.28
2022-10-20T07:56:40.979Z,94430.41
2022-10-20T07:57:37.572Z,94431.63
2022-10-20T07:58:34.226Z,94417.53
2022-10-20T07:59:31.317Z,94395.94
2022-10-20T08:00:27.991Z,94422.53
2022-10-20T08:01:25.298Z,94394.25
2022-10-20T08:02:23.594Z,94423.06
2022-10-20T08:03:23.056Z,94413.13
2022-10-20T08:04:19.599Z,94422.91
2022-10-20T08:05:16.261Z,94425.25
2022-10-20T08:06:12.918Z,94425.13
2022-10-20T08:07:10.945Z,94410.53
2022-10-20T08:08:07.628Z,94434.94
2022-10-20T08:09:11.191Z,94431.09
2022-10-20T08:10:11.375Z,94434.34
2022-10-20T08:11:10.392Z,94440.91
2022-10-20T08:12:07.624Z,94429.44
2022-10-20T08:13:04.228Z,94427.81
2022-10-20T08:14:00.820Z,94435.94
2022-10-20T08:15:05.353Z,94429.91
2022-10-20T08:16:02.380Z,94338.63
2022-10-20T08:17:01.760Z,94431.38
2022-10-20T08:17:58.336Z,94430.06
2022-10-20T08:19:06.773Z,94428.59
2022-10-20T08:21:17.595Z,94425.97
2022-10-20T08:22:19.140Z,94402.41
2022-10-20T08:23:16.611Z,94431.34
2022-10-20T08:24:13.170Z,94430.09
2022-10-20T08:25:14.873Z,94399.91
2022-10-20T08:26:12.919Z,94420.78
2022-10-20T08:27:09.507Z,94435.44
2022-10-20T08:28:06.726Z,94427.56
2022-10-20T08:29:03.385Z,94428.16
2022-10-20T08:30:06.186Z,94380.88
2022-10-20T08:31:15.713Z,94415.91
2022-10-20T08:32:14.244Z,94419.34
2022-10-20T08:33:10.888Z,94420.97
2022-10-20T08:34:08.157Z,94411.91
2022-10-20T08:35:05.060Z,94422.41
2022-10-20T08:36:10.832Z,94413.34
2022-10-20T08:37:07.727Z,94420.47
2022-10-20T08:38:07.277Z,94413.56
2022-10-20T08:39:06.224Z,94413.50
2022-10-20T08:40:06.730Z,94417.00
2022-10-20T08:41:05.843Z,94419.81
2022-10-20T08:42:08.685Z,94417.03
2022-10-20T08:43:07.179Z,94418.31
2022-10-20T08:44:07.121Z,94396.22
2022-10-20T08:45:04.103Z,94413.16
2022-10-20T08:46:00.846Z,94419.00
2022-10-20T08:47:00.102Z,94421.22
2022-10-20T08:49:34.647Z,94422.31
2022-10-20T08:50:32.290Z,94435.84
2022-10-20T08:51:33.644Z,94425.16
2022-10-20T08:52:30.626Z,94423.41
2022-10-20T08:53:27.898Z,94428.75
2022-10-20T08:54:24.698Z,94424.63
2022-10-20T08:55:32.434Z,94424.03
2022-10-20T08:56:30.769Z,94423.44
2022-10-20T08:57:34.664Z,94428.44
2022-10-20T08:58:33.322Z,94419.38
2022-10-20T08:59:34.958Z,94425.75
2022-10-20T09:00:32.846Z,94426.28
2022-10-20T09:01:34.527Z,94430.19
2022-10-20T09:02:34.325Z,94422.69
2022-10-20T09:03:33.334Z,94421.88
2022-10-20T09:04:38.591Z,94420.47
2022-10-20T09:05:35.599Z,94414.75
2022-10-20T09:06:32.640Z,94422.63
2022-10-20T09:07:37.832Z,94394.25
2022-10-20T09:08:37.754Z,94420.44
2022-10-20T09:09:35.560Z,94381.16
2022-10-20T09:10:44.222Z,94424.31
2022-10-20T09:11:41.937Z,94414.66
2022-10-20T09:12:41.517Z,94418.50
2022-10-20T09:13:38.229Z,94420.09
2022-10-20T09:14:37.260Z,94402.03
2022-10-20T09:15:34.023Z,94410.97
2022-10-20T09:16:42.291Z,94411.97
2022-10-20T09:17:55.094Z,94416.78
2022-10-20T09:19:01.287Z,94418.88
2022-10-20T09:19:59.446Z,94408.81
2022-10-20T09:21:07.233Z,94420.69
2022-10-20T09:22:06.512Z,94388.53
2022-10-20T09:23:07.973Z,94417.41
2022-10-20T09:24:13.691Z,94422.06
2022-10-20T09:25:22.176Z,94430.69
2022-10-20T09:26:58.201Z,94428.50
2022-10-20T09:27:56.843Z,94431.75
2022-10-20T09:29:12.950Z,94425.06
2022-10-20T09:30:26.005Z,94428.59
2022-10-20T09:31:34.634Z,94422.75
2022-10-20T09:32:48.441Z,94433.28
2022-10-20T09:33:47.193Z,94425.38
2022-10-20T09:34:43.847Z,94393.97
2022-10-20T09:35:41.218Z,94426.66
2022-10-20T09:36:37.856Z,94427.50
2022-10-20T09:37:36.877Z,94404.63
2022-10-20T09:38:35.188Z,94394.88
2022-10-20T09:39:52.680Z,94415.38
2022-10-20T09:41:25.518Z,94422.06
2022-10-20T09:42:29.959Z,94426.00
2022-10-20T09:43:27.425Z,94389.66
2022-10-20T09:44:25.805Z,94426.00
2022-10-20T09:45:28.668Z,94407.81
2022-10-20T09:46:32.309Z,94417.59
2022-10-20T09:47:29.667Z,94393.09
2022-10-20T09:48:33.176Z,94420.25
2022-10-20T09:49:38.775Z,94418.84
2022-10-20T09:50:39.033Z,94405.34
2022-10-20T09:51:35.934Z,94421.25
2022-10-20T09:52:47.408Z,94393.84
2022-10-20T09:54:07.601Z,94419.13
2022-10-20T09:55:17.171Z,94428.63
2022-10-20T09:56:24.128Z,94397.47
2022-10-20T09:57:22.792Z,94425.88
2022-10-20T09:58:26.900Z,94416.53
2022-10-20T09:59:37.160Z,94423.75
2022-10-20T10:00:38.650Z,94424.72
2022-10-20T10:01:59.842Z,94412.75
2022-10-20T10:03:25.754Z,94423.38
2022-10-20T10:04:40.041Z,94413.78
2022-10-20T10:05:36.912Z,94413.81
2022-10-20T10:06:46.248Z,94418.25
2022-10-20T10:07:43.220Z,94421.69
2022-10-20T10:08:45.818Z,94411.38
2022-10-20T10:10:03.953Z,94414.41
2022-10-20T10:11:13.713Z,94403.81
2022-10-20T10:12:13.296Z,94413.53
2022-10-20T10:13:25.058Z,94405.31
2022-10-20T10:14:23.456Z,94405.31
2022-10-20T10:15:23.006Z,94399.06
2022-10-20T10:16:22.209Z,94401.66
2022-10-20T10:17:32.974Z,94405.25
2022-10-20T10:18:30.155Z,94384.63
2022-10-20T10:19:30.446Z,94400.16
2022-10-20T10:20:34.510Z,94397.78
2022-10-20T10:21:45.354Z,94389.59
2022-10-20T10:22:42.984Z,94354.78
2022-10-20T10:23:57.645Z,94390.53
2022-10-20T10:24:56.016Z,94398.25
2022-10-20T10:25:53.431Z,94390.16
2022-10-20T10:26:54.746Z,94395.34
2022-10-20T10:28:09.092Z,94396.03
2022-10-20T10:29:16.429Z,94391.53
2022-10-20T10:30:29.141Z,94386.81
2022-10-20T10:31:27.377Z,94396.09
2022-10-20T10:32:27.068Z,94392.31
2022-10-20T10:33:29.103Z,94389.19
2022-10-20T10:34:47.855Z,94403.94
2022-10-20T10:35:45.032Z,94391.63
2022-10-20T10:36:41.895Z,94388.56
2022-10-20T10:37:42.147Z,94387.97
2022-10-20T10:38:39.265Z,94385.66
2022-10-20T10:39:36.391Z,94382.50
2022-10-20T10:41:01.037Z,94377.88
2022-10-20T10:42:18.916Z,94386.69
2022-10-20T10:43:29.661Z,94378.06
2022-10-20T10:44:48.577Z,94381.72
2022-10-20T10:45:48.334Z,94378.09
2022-10-20T10:47:25.427Z,94373.84
2022-10-20T10:48:40.881Z,94377.81
2022-10-20T10:50:06.578Z,94368.72
2022-10-20T10:51:27.679Z,94373.81
2022-10-20T10:52:30.227Z,94370.09
2022-10-20T10:53:26.751Z,94372.09
2022-10-20T10:54:23.268Z,94373.53
2022-10-20T10:55:48.326Z,94344.03
2022-10-20T10:56:56.845Z,94371.06
2022-10-20T10:59:30.724Z,94345.56
2022-10-20T11:00:55.129Z,94367.31
2022-10-20T11:02:10.038Z,94367.81
2022-10-20T11:03:23.809Z,94363.84
2022-10-20T11:04:38.451Z,94367.25
2022-10-20T11:05:37.726Z,94350.88
2022-10-20T11:06:34.252Z,94353.59
2022-10-20T11:07:53.747Z,94356.69
2022-10-20T11:09:11.220Z,94353.16
2022-10-20T11:10:23.784Z,94344.28
2022-10-20T11:12:00.885Z,94352.47
2022-10-20T11:13:16.153Z,94356.16
2022-10-20T11:14:56.544Z,94346.88
2022-10-20T11:15:55.888Z,94292.63
2022-10-20T11:17:13.464Z,94354.84
2022-10-20T11:18:25.169Z,94350.91
2022-10-20T11:20:04.737Z,94352.75
2022-10-20T11:21:22.697Z,94349.13
2022-10-20T11:22:46.260Z,94342.63
2022-10-20T11:24:04.288Z,94345.53
2022-10-20T11:25:30.306Z,94342.84
2022-10-20T11:26:32.913Z,94346.16
2022-10-20T11:27:37.119Z,94326.31
2022-10-20T11:28:44.716Z,94346.22
2022-10-20T11:30:05.724Z,94340.47
2022-10-20T11:31:04.315Z,94349.56
2022-10-20T11:32:28.743Z,94341.38
2022-10-20T11:33:36.977Z,94325.91
2022-10-20T11:34:43.593Z,94330.81
2022-10-20T11:35:46.416Z,94326.56
2022-10-20T11:36:51.938Z,94312.19
2022-10-20T11:37:56.768Z,94299.09
2022-10-20T11:38:56.156Z,94313.66
2022-10-20T11:40:14.899Z,94325.47
2022-10-20T11:41:17.570Z,94327.88
2022-10-20T11:42:20.633Z,94323.97
2022-10-20T11:43:41.178Z,94325.63
2022-10-20T11:44:41.785Z,94328.47
2022-10-20T11:45:47.683Z,94327.88
2022-10-20T11:46:51.652Z,94297.00
2022-10-20T11:47:50.976Z,94325.34
2022-10-20T11:48:52.872Z,94325.69
2022-10-20T11:49:49.535Z,94312.63
2022-10-20T11:50:58.380Z,94320.38
2022-10-20T11:52:26.073Z,94311.22
2022-10-20T11:53:54.611Z,94316.25
2022-10-20T11:55:14.873Z,94321.16
2022-10-20T11:56:50.073Z,94320.34
2022-10-20T11:58:04.875Z,94320.00
2022-10-20T11:59:04.391Z,94315.63
2022-10-20T12:00:07.781Z,94294.88
2022-10-20T12:01:25.437Z,94303.03
2022-10-20T12:02:49.666Z,94308.53
2022-10-20T12:04:31.970Z,94308.03
2022-10-20T12:05:55.592Z,94305.06
2022-10-20T12:07:15.059Z,94310.66
2022-10-20T12:08:43.557Z,94299.78
2022-10-20T12:09:56.024Z,94313.13
2022-10-20T12:11:23.358Z,94306.25